Time;durP1;ratioP1;P1;durP2;ratioP2;P2;SDS_P1;SDS_P2;PMS_P1;PMS_P2;Temp;Humidity;BMP_temperature;BMP_pressure;BME280_temperature;BME280_humidity;BME280_pressure;Samples;Min_cycle;Max_cycle;Signal;HPM_P1;HPM_P2
2021/09/24 00:01:02;;;;;;;5.90;4.37;;;19.00;99.90;;;;;;6169058;23;20702;-84
2021/09/24 00:03:29;;;;;;;3.60;3.30;;;19.00;99.90;;;;;;6169788;23;20425;-84
2021/09/24 00:05:56;;;;;;;6.17;3.73;;;19.00;99.90;;;;;;6126291;23;20413;-85
2021/09/24 00:08:23;;;;;;;4.03;3.40;;;18.90;99.90;;;;;;6145979;23;20811;-87
2021/09/24 00:10:51;;;;;;;4.53;4.10;;;18.90;99.90;;;;;;6117778;23;20437;-85
2021/09/24 00:13:18;;;;;;;5.63;3.60;;;18.90;99.90;;;;;;6118692;23;20410;-85
2021/09/24 00:15:45;;;;;;;7.47;4.20;;;18.90;99.90;;;;;;6117400;23;20862;-84
2021/09/24 00:18:12;;;;;;;3.93;3.23;;;18.90;99.90;;;;;;6143021;23;20438;-85
2021/09/24 00:20:39;;;;;;;8.10;4.37;;;18.90;99.90;;;;;;6140317;23;21588;-85
2021/09/24 00:23:06;;;;;;;6.00;3.93;;;18.90;99.90;;;;;;6144165;23;20485;-89
2021/09/24 00:25:34;;;;;;;8.03;3.90;;;18.90;99.90;;;;;;6147232;23;20740;-87
2021/09/24 00:28:03;;;;;;;4.97;4.47;;;18.90;99.90;;;;;;6148525;23;20440;-87
2021/09/24 00:30:30;;;;;;;5.53;4.07;;;18.90;99.90;;;;;;6158070;23;20753;-85
2021/09/24 00:32:57;;;;;;;4.30;3.83;;;18.90;99.90;;;;;;6146482;23;21170;-86
2021/09/24 00:35:24;;;;;;;4.57;4.13;;;18.80;99.90;;;;;;6147962;23;20417;-88
2021/09/24 00:37:51;;;;;;;6.30;4.47;;;18.80;99.90;;;;;;6145861;23;21030;-86
2021/09/24 00:40:24;;;;;;;4.93;3.47;;;18.80;99.90;;;;;;6148241;23;20501;-85
2021/09/24 00:43:00;;;;;;;7.37;4.33;;;18.80;99.90;;;;;;6125005;23;20605;-87
2021/09/24 00:45:28;;;;;;;8.03;4.13;;;18.90;99.90;;;;;;6147913;23;20417;-86
2021/09/24 00:48:09;;;;;;;5.50;3.87;;;18.90;99.90;;;;;;6146569;23;21004;-85
2021/09/24 00:50:40;;;;;;;4.50;3.87;;;18.90;99.90;;;;;;6150030;23;20410;-86
2021/09/24 00:53:11;;;;;;;5.43;4.33;;;18.90;99.90;;;;;;6150118;23;20413;-87
2021/09/24 00:55:40;;;;;;;4.40;3.90;;;18.90;99.90;;;;;;6154937;23;20443;-86
2021/09/24 00:58:10;;;;;;;9.77;3.80;;;18.80;99.90;;;;;;6132305;23;20497;-86
2021/09/24 01:00:43;;;;;;;8.20;3.90;;;18.80;99.90;;;;;;6124519;23;20516;-86
2021/09/24 01:03:24;;;;;;;4.13;3.73;;;18.80;99.90;;;;;;6120666;23;20398;-86
2021/09/24 01:06:02;;;;;;;7.10;4.60;;;18.80;99.90;;;;;;6147249;23;20370;-86
2021/09/24 01:08:34;;;;;;;7.00;3.77;;;18.80;99.90;;;;;;6146648;23;20515;-87
2021/09/24 01:11:08;;;;;;;9.87;4.20;;;18.80;99.90;;;;;;6122761;23;20413;-86
2021/09/24 01:13:40;;;;;;;5.67;4.10;;;18.80;99.90;;;;;;6131468;23;20410;-86
2021/09/24 01:16:08;;;;;;;6.30;4.07;;;18.80;99.90;;;;;;6146890;23;20413;-86
2021/09/24 01:18:35;;;;;;;5.87;4.03;;;18.80;99.90;;;;;;6120908;23;20441;-85
2021/09/24 01:21:10;;;;;;;4.40;3.80;;;18.80;99.90;;;;;;6136710;23;20414;-87
2021/09/24 01:23:39;;;;;;;6.57;3.87;;;18.80;99.90;;;;;;6148046;23;20405;-86
2021/09/24 01:26:07;;;;;;;5.33;3.90;;;18.80;99.90;;;;;;6149325;23;20433;-87
2021/09/24 01:28:36;;;;;;;4.83;3.93;;;18.80;99.90;;;;;;6140547;23;20481;-85
2021/09/24 01:31:08;;;;;;;7.57;4.80;;;18.80;99.90;;;;;;6122247;23;21018;-86
2021/09/24 01:33:49;;;;;;;7.80;4.53;;;18.80;99.90;;;;;;6147755;23;20532;-85
2021/09/24 01:36:20;;;;;;;7.23;4.80;;;18.70;99.90;;;;;;6121142;23;21255;-86
2021/09/24 01:38:47;;;;;;;4.73;4.33;;;18.70;99.90;;;;;;6110857;23;20444;-86
2021/09/24 01:41:16;;;;;;;8.40;4.17;;;18.70;99.90;;;;;;6122037;23;20492;-87
2021/09/24 01:43:45;;;;;;;4.60;4.20;;;18.70;99.90;;;;;;6121077;23;20464;-86
2021/09/24 01:46:12;;;;;;;6.47;5.33;;;18.70;99.90;;;;;;6148306;23;20807;-86
2021/09/24 01:48:43;;;;;;;8.17;4.97;;;18.60;99.90;;;;;;6009526;23;20480;-87
2021/09/24 01:51:10;;;;;;;7.33;4.50;;;18.70;99.90;;;;;;6118833;23;20513;-85
2021/09/24 01:53:42;;;;;;;5.33;4.67;;;18.70;99.90;;;;;;6118778;23;20817;-86
2021/09/24 01:56:09;;;;;;;9.43;4.77;;;18.70;99.90;;;;;;6117088;23;20441;-86
2021/09/24 01:58:36;;;;;;;6.90;4.87;;;18.60;99.90;;;;;;6145193;23;20776;-86
2021/09/24 02:01:10;;;;;;;5.20;4.70;;;18.60;99.90;;;;;;6121408;23;20425;-86
2021/09/24 02:03:43;;;;;;;6.67;5.30;;;18.60;99.90;;;;;;6115668;23;20438;-86
2021/09/24 02:06:14;;;;;;;9.47;5.13;;;18.60;99.90;;;;;;6122758;23;20382;-86
2021/09/24 02:08:47;;;;;;;8.00;4.87;;;18.60;99.90;;;;;;6144506;23;20773;-86
2021/09/24 02:11:19;;;;;;;7.10;4.90;;;18.60;99.90;;;;;;6120049;23;20869;-86
2021/09/24 02:13:50;;;;;;;7.93;5.00;;;18.60;99.90;;;;;;6130832;23;20422;-87
2021/09/24 02:16:21;;;;;;;10.13;6.47;;;18.60;99.90;;;;;;6144654;23;20954;-86
2021/09/24 02:18:51;;;;;;;6.77;5.70;;;18.60;99.90;;;;;;6143988;23;20713;-87
2021/09/24 02:21:20;;;;;;;7.13;5.13;;;18.50;99.90;;;;;;6139356;23;20416;-87
2021/09/24 02:23:50;;;;;;;9.30;5.30;;;18.50;99.90;;;;;;6138492;23;21030;-86
2021/09/24 02:26:16;;;;;;;8.10;5.30;;;18.50;99.90;;;;;;6146209;23;20410;-86
2021/09/24 02:29:01;;;;;;;6.87;5.53;;;18.50;99.90;;;;;;6143837;23;20445;-85
2021/09/24 02:31:32;;;;;;;10.03;4.67;;;18.50;99.90;;;;;;6143102;23;20394;-86
2021/09/24 02:34:06;;;;;;;6.90;5.40;;;18.50;99.90;;;;;;6147697;23;20445;-84
2021/09/24 02:36:39;;;;;;;7.00;5.17;;;18.50;99.90;;;;;;6147215;23;20721;-84
2021/09/24 02:39:09;;;;;;;8.70;6.30;;;18.50;99.90;;;;;;6142227;23;20441;-86
2021/09/24 02:41:52;;;;;;;7.40;5.40;;;18.50;99.90;;;;;;6143752;23;20489;-85
2021/09/24 02:44:21;;;;;;;10.07;6.10;;;18.50;99.90;;;;;;6142747;23;20420;-85
2021/09/24 02:46:47;;;;;;;10.63;5.97;;;18.50;99.90;;;;;;6144834;23;20445;-86
2021/09/24 02:49:14;;;;;;;7.03;5.83;;;18.50;99.90;;;;;;6146286;23;20538;-87
2021/09/24 02:51:49;;;;;;;6.50;5.90;;;18.40;99.90;;;;;;6144994;23;20420;-86
2021/09/24 02:54:17;;;;;;;6.43;5.57;;;18.40;99.90;;;;;;6146751;23;20420;-85
2021/09/24 02:56:44;;;;;;;13.03;7.17;;;18.40;99.90;;;;;;6131994;23;20470;-86
2021/09/24 02:59:10;;;;;;;6.40;5.67;;;18.40;99.90;;;;;;6169443;23;20434;-86
2021/09/24 03:01:38;;;;;;;8.60;5.93;;;18.40;99.90;;;;;;6161006;23;20417;-86
2021/09/24 03:04:06;;;;;;;7.10;5.90;;;18.40;99.90;;;;;;6140654;23;20469;-85
2021/09/24 03:06:34;;;;;;;9.60;6.40;;;18.40;99.90;;;;;;6130861;23;20417;-85
2021/09/24 03:09:02;;;;;;;8.03;6.90;;;18.40;99.90;;;;;;6138565;23;20454;-85
2021/09/24 03:11:29;;;;;;;7.60;6.90;;;18.40;99.90;;;;;;6142686;23;20921;-87
2021/09/24 03:13:55;;;;;;;7.23;6.37;;;18.40;99.90;;;;;;6143538;23;20741;-85
2021/09/24 03:16:23;;;;;;;7.50;6.80;;;18.40;99.90;;;;;;6142378;23;20410;-85
2021/09/24 03:18:50;;;;;;;14.10;8.27;;;18.30;99.90;;;;;;6116324;23;20449;-84
2021/09/24 03:21:18;;;;;;;10.90;9.27;;;18.30;99.90;;;;;;6118841;23;20418;-85
2021/09/24 03:23:45;;;;;;;10.13;8.37;;;18.20;99.90;;;;;;6115674;23;20517;-85
2021/09/24 03:26:12;;;;;;;15.50;10.10;;;18.20;99.90;;;;;;6119138;23;20766;-85
2021/09/24 03:28:40;;;;;;;13.30;10.17;;;18.20;99.90;;;;;;6115919;23;20461;-86
2021/09/24 03:31:06;;;;;;;11.60;9.60;;;18.10;99.90;;;;;;6118435;23;20452;-87
2021/09/24 03:33:33;;;;;;;11.37;10.17;;;18.20;99.90;;;;;;6143063;23;20651;-87
2021/09/24 03:36:00;;;;;;;12.73;10.80;;;18.20;99.90;;;;;;6117998;23;20445;-86
2021/09/24 03:38:27;;;;;;;11.53;10.20;;;18.20;99.90;;;;;;6117074;23;20433;-86
2021/09/24 03:40:54;;;;;;;15.60;11.10;;;18.10;99.90;;;;;;6117924;23;20422;-87
2021/09/24 03:43:21;;;;;;;11.10;9.70;;;18.10;99.90;;;;;;6118739;23;20421;-88
2021/09/24 03:45:48;;;;;;;13.03;10.00;;;18.10;99.90;;;;;;6115317;23;20876;-85
2021/09/24 03:48:18;;;;;;;12.83;10.73;;;18.10;99.90;;;;;;6120511;23;20473;-85
2021/09/24 03:50:45;;;;;;;13.60;11.77;;;18.10;99.90;;;;;;6117457;23;20489;-85
2021/09/24 03:53:21;;;;;;;12.63;11.33;;;18.10;99.90;;;;;;6118348;23;20517;-86
2021/09/24 03:55:53;;;;;;;20.00;13.53;;;18.00;99.90;;;;;;6119523;23;20405;-86
2021/09/24 03:58:23;;;;;;;15.40;12.53;;;18.00;99.90;;;;;;6118155;23;20716;-87
2021/09/24 04:00:51;;;;;;;15.00;12.00;;;18.00;99.90;;;;;;6116592;23;20413;-85
2021/09/24 04:03:18;;;;;;;14.30;12.80;;;18.00;99.90;;;;;;6117864;23;20468;-85
2021/09/24 04:05:53;;;;;;;18.10;14.20;;;18.00;99.90;;;;;;6118081;23;20674;-86
2021/09/24 04:08:23;;;;;;;17.30;13.77;;;18.00;99.90;;;;;;6115029;23;20477;-86
2021/09/24 04:11:01;;;;;;;17.37;12.87;;;18.00;99.90;;;;;;6116631;23;20409;-86
2021/09/24 04:13:31;;;;;;;21.53;14.97;;;18.00;99.90;;;;;;6117548;23;20645;-86
2021/09/24 04:16:05;;;;;;;14.13;12.53;;;18.00;99.90;;;;;;6119702;23;20409;-87
2021/09/24 04:18:34;;;;;;;19.33;13.87;;;18.00;99.90;;;;;;6117170;23;20488;-87
2021/09/24 04:21:10;;;;;;;19.77;12.50;;;18.00;99.90;;;;;;6115851;23;20418;-86
2021/09/24 04:23:47;;;;;;;18.30;13.40;;;18.00;99.90;;;;;;6119366;23;20422;-86
2021/09/24 04:26:25;;;;;;;19.40;14.83;;;18.00;99.90;;;;;;6141810;23;20413;-86
2021/09/24 04:28:52;;;;;;;17.07;13.47;;;18.00;99.90;;;;;;6117500;23;21103;-86
2021/09/24 04:31:24;;;;;;;15.67;12.93;;;18.00;99.90;;;;;;6144366;23;20402;-86
2021/09/24 04:34:10;;;;;;;16.97;13.27;;;18.00;99.90;;;;;;6166300;23;20917;-87
2021/09/24 04:36:51;;;;;;;15.73;12.90;;;18.00;99.90;;;;;;6087873;23;20953;-86
2021/09/24 04:39:24;;;;;;;16.80;15.10;;;18.00;99.90;;;;;;6138077;23;20445;-86
2021/09/24 04:41:54;;;;;;;18.20;13.63;;;18.00;99.90;;;;;;6139868;23;20428;-85
2021/09/24 04:44:29;;;;;;;18.53;13.50;;;18.20;99.90;;;;;;6161539;23;20418;-85
2021/09/24 04:47:03;;;;;;;17.30;14.40;;;18.60;99.90;;;;;;6150425;23;20938;-86
2021/09/24 04:49:34;;;;;;;16.13;13.53;;;18.40;99.90;;;;;;6171325;23;20444;-86
2021/09/24 04:52:04;;;;;;;15.97;14.27;;;18.10;99.90;;;;;;6171494;23;20473;-86
2021/09/24 04:54:31;;;;;;;22.73;15.47;;;18.00;99.90;;;;;;6147123;23;20486;-85
2021/09/24 04:57:01;;;;;;;16.20;14.17;;;18.00;99.90;;;;;;6154084;23;20414;-85
2021/09/24 04:59:30;;;;;;;18.30;15.03;;;18.00;99.90;;;;;;6168539;23;20573;-86
2021/09/24 05:01:57;;;;;;;19.53;15.37;;;18.40;99.90;;;;;;6166239;23;20390;-86
2021/09/24 05:04:27;;;;;;;20.60;14.57;;;18.60;99.90;;;;;;6137454;23;21070;-86
2021/09/24 05:06:57;;;;;;;19.17;14.73;;;18.50;99.90;;;;;;6154305;23;20659;-87
2021/09/24 05:09:31;;;;;;;17.27;15.17;;;18.30;99.90;;;;;;6147687;23;20533;-86
2021/09/24 05:12:00;;;;;;;23.33;16.90;;;18.30;99.90;;;;;;6145744;23;20414;-85
2021/09/24 05:14:31;;;;;;;18.27;16.30;;;18.10;99.90;;;;;;6148272;23;20450;-85
2021/09/24 05:17:04;;;;;;;17.77;16.00;;;18.00;99.90;;;;;;6148041;23;20444;-85
2021/09/24 05:19:43;;;;;;;18.80;16.67;;;17.90;99.90;;;;;;6141466;23;20402;-85
2021/09/24 05:22:18;;;;;;;18.43;16.37;;;17.90;99.90;;;;;;6144752;23;20931;-85
2021/09/24 05:24:56;;;;;;;19.87;17.87;;;17.90;99.90;;;;;;6149210;23;20496;-85
2021/09/24 05:27:23;;;;;;;21.27;17.33;;;18.30;99.90;;;;;;6144194;23;20940;-83
2021/09/24 05:29:49;;;;;;;20.77;18.53;;;18.10;99.90;;;;;;6145851;23;20886;-87
2021/09/24 05:32:34;;;;;;;21.63;18.37;;;18.00;99.90;;;;;;6146460;23;20390;-86
2021/09/24 05:35:01;;;;;;;23.67;17.80;;;18.00;99.90;;;;;;6149177;23;20744;-85
2021/09/24 05:37:37;;;;;;;21.03;18.17;;;17.90;99.90;;;;;;6145472;23;20414;-88
2021/09/24 05:40:13;;;;;;;20.93;18.77;;;18.00;99.90;;;;;;6147511;23;20449;-85
2021/09/24 05:42:54;;;;;;;20.03;17.80;;;18.10;99.90;;;;;;6147790;23;20414;-85
2021/09/24 05:45:26;;;;;;;19.80;17.77;;;18.00;99.90;;;;;;6151269;23;20432;-85
2021/09/24 05:48:02;;;;;;;22.37;18.17;;;17.80;99.90;;;;;;6124673;23;21018;-86
2021/09/24 05:50:32;;;;;;;21.60;18.57;;;17.80;99.90;;;;;;6125170;23;20405;-85
2021/09/24 05:53:02;;;;;;;23.07;18.10;;;17.80;99.90;;;;;;6128329;23;20902;-86
2021/09/24 05:55:40;;;;;;;21.43;16.53;;;17.80;99.90;;;;;;6171558;23;20962;-87
2021/09/24 05:58:21;;;;;;;24.40;17.03;;;17.80;99.90;;;;;;6148774;23;20445;-85
2021/09/24 06:00:54;;;;;;;22.60;17.47;;;17.80;99.90;;;;;;6146061;23;20429;-85
2021/09/24 06:03:26;;;;;;;19.17;16.80;;;18.00;99.90;;;;;;6128293;23;20417;-85
2021/09/24 06:06:03;;;;;;;17.63;15.83;;;17.90;99.90;;;;;;6129540;23;20418;-86
2021/09/24 06:08:38;;;;;;;18.57;16.17;;;17.80;99.90;;;;;;6137635;23;20449;-87
2021/09/24 06:11:04;;;;;;;18.70;16.70;;;17.80;99.90;;;;;;6141644;23;20410;-88
2021/09/24 06:13:34;;;;;;;18.83;16.03;;;17.80;99.90;;;;;;6120968;23;20406;-86
2021/09/24 06:16:01;;;;;;;23.67;16.50;;;17.80;99.90;;;;;;6146374;23;20501;-86
2021/09/24 06:18:30;;;;;;;21.83;16.00;;;17.80;99.90;;;;;;6145874;23;20642;-87
2021/09/24 06:21:02;;;;;;;20.03;17.13;;;17.80;99.90;;;;;;6124773;23;20414;-85
2021/09/24 06:23:34;;;;;;;18.63;16.53;;;17.80;99.90;;;;;;6150311;23;20420;-85
2021/09/24 06:26:12;;;;;;;20.57;16.00;;;17.80;99.90;;;;;;6161216;23;20386;-86
2021/09/24 06:29:02;;;;;;;18.30;16.43;;;17.80;99.90;;;;;;6166491;23;20460;-86
2021/09/24 06:31:41;;;;;;;20.07;15.93;;;17.90;99.90;;;;;;6171750;23;20454;-86
2021/09/24 06:34:15;;;;;;;17.87;15.30;;;17.90;99.90;;;;;;6171315;23;20674;-85
2021/09/24 06:36:46;;;;;;;24.03;17.50;;;18.00;99.90;;;;;;6147168;23;20420;-86
2021/09/24 06:39:30;;;;;;;17.97;15.90;;;17.90;99.90;;;;;;6149550;23;20430;-86
2021/09/24 06:42:01;;;;;;;18.23;16.33;;;18.00;99.90;;;;;;6145335;23;20448;-87
2021/09/24 06:44:47;;;;;;;18.77;16.10;;;18.40;99.90;;;;;;6146802;23;20412;-87
2021/09/24 06:47:26;;;;;;;21.60;15.30;;;18.40;99.90;;;;;;6149803;23;20465;-87
2021/09/24 06:49:56;;;;;;;19.33;14.40;;;18.20;99.90;;;;;;6150693;23;20442;-85
2021/09/24 06:52:57;;;;;;;20.70;16.50;;;18.00;99.90;;;;;;6149521;23;20440;-87
2021/09/24 06:55:34;;;;;;;17.20;13.60;;;18.00;99.90;;;;;;6147637;23;20492;-86
2021/09/24 06:58:29;;;;;;;18.20;14.90;;;18.30;99.90;;;;;;6135861;23;20433;-87
2021/09/24 07:01:07;;;;;;;19.87;16.00;;;18.60;99.90;;;;;;6147419;23;20431;-87
2021/09/24 07:04:00;;;;;;;17.90;15.17;;;18.30;99.90;;;;;;6145409;23;20983;-86
2021/09/24 07:06:37;;;;;;;32.93;21.50;;;18.20;99.90;;;;;;6146653;23;20525;-87
2021/09/24 07:09:17;;;;;;;19.40;16.50;;;18.10;99.90;;;;;;6127212;23;20449;-85
2021/09/24 07:12:01;;;;;;;22.77;16.13;;;18.10;99.90;;;;;;6137900;23;20437;-87
2021/09/24 07:14:37;;;;;;;20.53;16.37;;;18.10;99.90;;;;;;6124705;23;20425;-87
2021/09/24 07:20:09;;;;;;;17.63;14.50;;;18.30;99.90;;;;;;6080924;23;20468;-87
2021/09/24 07:22:38;;;;;;;36.43;15.80;;;18.70;99.90;;;;;;6059741;23;20490;-86
2021/09/24 07:25:30;;;;;;;18.43;15.00;;;18.80;99.90;;;;;;6084678;23;20507;-86
2021/09/24 07:28:12;;;;;;;14.07;12.33;;;19.60;99.90;;;;;;6071570;23;20438;-85
2021/09/24 07:30:45;;;;;;;14.57;11.47;;;21.90;99.90;;;;;;6116904;23;20466;-84
2021/09/24 07:33:18;;;;;;;14.53;11.33;;;22.80;96.20;;;;;;6112681;23;20482;-85
2021/09/24 07:35:50;;;;;;;13.93;11.23;;;22.80;95.50;;;;;;6084549;23;20449;-87
2021/09/24 07:38:33;;;;;;;13.83;12.00;;;23.40;94.70;;;;;;6126834;23;20521;-86
2021/09/24 07:41:21;;;;;;;10.17;9.17;;;24.10;93.40;;;;;;6103854;23;20450;-85
2021/09/24 07:44:06;;;;;;;11.60;10.27;;;24.00;92.70;;;;;;6111797;23;21551;-87
2021/09/24 07:46:51;;;;;;;9.63;8.57;;;23.30;92.60;;;;;;6082939;23;20418;-87
2021/09/24 07:49:59;;;;;;;14.00;9.13;;;22.40;94.40;;;;;;6093547;23;20485;-87
2021/09/24 07:53:08;;;;;;;10.63;7.47;;;21.80;95.30;;;;;;6123773;23;20410;-86
2021/09/24 07:55:43;;;;;;;9.53;8.10;;;21.10;96.40;;;;;;6092860;23;20410;-86
2021/09/24 07:58:57;;;;;;;;;;;;;;;;;;;;;
2021/09/24 08:01:51;;;;;;;10.13;8.57;;;20.70;98.70;;;;;;6122182;23;21440;-88
2021/09/24 08:04:31;;;;;;;9.47;8.57;;;21.00;97.90;;;;;;6086512;23;20959;-87
2021/09/24 08:06:58;;;;;;;10.00;8.00;;;21.40;97.40;;;;;;6094880;23;20395;-88
2021/09/24 08:09:27;;;;;;;12.90;9.03;;;21.30;96.90;;;;;;6100987;23;20509;-87
2021/09/24 08:12:03;;;;;;;10.13;8.40;;;20.90;97.20;;;;;;6089994;23;20731;-84
2021/09/24 08:14:36;;;;;;;14.17;8.50;;;20.40;98.40;;;;;;6089599;23;20894;-84
2021/09/24 08:17:09;;;;;;;10.20;9.30;;;20.00;99.50;;;;;;6111172;23;20418;-85
2021/09/24 08:19:40;;;;;;;10.20;9.30;;;20.20;99.30;;;;;;6088962;23;20505;-86
2021/09/24 08:22:16;;;;;;;10.97;8.57;;;20.00;99.70;;;;;;6084960;23;20808;-85
2021/09/24 08:24:49;;;;;;;9.97;8.80;;;19.80;99.90;;;;;;6092759;23;20426;-86
2021/09/24 08:27:17;;;;;;;14.00;9.47;;;19.80;99.90;;;;;;6091195;23;20957;-84
2021/09/24 08:29:54;;;;;;;10.60;8.60;;;19.50;99.90;;;;;;6090083;23;20473;-87
2021/09/24 08:32:29;;;;;;;9.20;8.27;;;19.20;99.90;;;;;;6087544;23;20928;-86
2021/09/24 08:35:06;;;;;;;9.97;8.37;;;19.10;99.90;;;;;;6113920;23;20709;-86
2021/09/24 08:37:42;;;;;;;9.20;8.07;;;19.20;99.90;;;;;;6087952;23;20444;-86
2021/09/24 08:40:18;;;;;;;11.60;10.40;;;19.50;99.90;;;;;;6116774;23;20981;-85
2021/09/24 08:42:53;;;;;;;9.83;8.83;;;19.50;99.90;;;;;;6117965;23;21136;-86
2021/09/24 08:45:26;;;;;;;11.90;10.50;;;19.30;99.90;;;;;;6118415;23;20413;-85
2021/09/24 08:47:59;;;;;;;11.17;9.63;;;19.30;99.90;;;;;;6094031;23;20479;-85
2021/09/24 08:50:30;;;;;;;14.50;10.57;;;19.30;99.90;;;;;;6090640;23;20450;-85
2021/09/24 08:53:04;;;;;;;12.40;11.20;;;20.00;99.90;;;;;;6114201;23;20478;-85
2021/09/24 08:55:50;;;;;;;13.73;12.43;;;20.20;99.90;;;;;;6115385;23;20418;-85
2021/09/24 08:58:31;;;;;;;12.03;10.73;;;19.90;99.90;;;;;;6113883;23;20525;-85
2021/09/24 09:01:05;;;;;;;12.70;10.70;;;19.70;99.90;;;;;;6118298;23;20410;-85
2021/09/24 09:03:50;;;;;;;11.63;10.47;;;19.60;99.90;;;;;;6091765;23;20908;-86
2021/09/24 09:06:32;;;;;;;10.80;9.70;;;19.60;99.90;;;;;;6113525;23;20458;-85
2021/09/24 09:09:32;;;;;;;10.93;9.83;;;19.80;99.90;;;;;;6121341;23;20449;-85
2021/09/24 09:12:15;;;;;;;14.67;13.17;;;20.10;99.90;;;;;;6124443;23;20426;-84
2021/09/24 09:15:02;;;;;;;15.23;12.20;;;20.20;99.90;;;;;;6095075;23;20513;-86
2021/09/24 09:17:37;;;;;;;13.60;12.50;;;20.30;99.90;;;;;;6109240;23;20438;-86
2021/09/24 09:20:16;;;;;;;13.43;12.13;;;20.10;99.80;;;;;;6120837;23;20418;-85
2021/09/24 09:22:49;;;;;;;13.70;12.40;;;20.20;99.90;;;;;;6119313;23;20429;-83
2021/09/24 09:25:36;;;;;;;12.20;11.10;;;20.30;99.70;;;;;;6119445;23;20410;-86
2021/09/24 09:28:10;;;;;;;13.17;11.80;;;20.40;99.30;;;;;;6123277;23;20451;-86
2021/09/24 09:30:44;;;;;;;13.63;12.40;;;20.30;99.30;;;;;;6123188;23;20493;-86
2021/09/24 09:33:25;;;;;;;13.13;11.90;;;20.30;99.50;;;;;;6119905;23;21249;-84
2021/09/24 09:36:06;;;;;;;14.43;12.57;;;20.30;99.20;;;;;;6126833;23;20489;-85
2021/09/24 09:38:52;;;;;;;13.90;12.20;;;20.40;99.20;;;;;;6102258;23;20458;-85
2021/09/24 09:41:26;;;;;;;11.20;10.30;;;20.70;99.40;;;;;;6099780;23;20419;-85
2021/09/24 09:43:59;;;;;;;11.70;10.40;;;22.00;97.10;;;;;;6107728;23;20852;-86
2021/09/24 09:46:36;;;;;;;10.70;9.63;;;23.10;94.00;;;;;;6098351;23;20667;-85
2021/09/24 09:49:16;;;;;;;81.00;22.43;;;23.80;92.40;;;;;;6113836;23;20712;-86
2021/09/24 09:52:14;;;;;;;8.90;8.20;;;24.30;91.20;;;;;;6096933;23;20410;-86
2021/09/24 09:54:41;;;;;;;9.70;8.70;;;25.10;89.70;;;;;;6126950;23;20387;-88
2021/09/24 09:57:22;;;;;;;10.63;8.20;;;25.30;87.40;;;;;;6122092;23;20925;-85
2021/09/24 09:59:51;;;;;;;8.77;7.57;;;25.80;86.90;;;;;;6124232;23;20441;-86
2021/09/24 10:02:35;;;;;;;9.17;8.30;;;26.30;83.70;;;;;;6124614;23;20443;-87
2021/09/24 10:05:03;;;;;;;8.63;7.93;;;26.60;82.00;;;;;;6122531;23;20409;-85
2021/09/24 10:07:38;;;;;;;8.93;8.23;;;26.70;79.40;;;;;;6112957;23;20965;-85
2021/09/24 10:10:16;;;;;;;8.93;8.20;;;26.00;81.80;;;;;;6124927;23;20454;-86
2021/09/24 10:12:44;;;;;;;9.70;8.80;;;26.00;82.50;;;;;;6144501;23;20407;-85
2021/09/24 10:15:14;;;;;;;8.40;7.70;;;25.60;83.20;;;;;;6116595;23;20509;-87
2021/09/24 10:17:42;;;;;;;9.07;8.27;;;25.00;84.90;;;;;;6119797;23;20446;-85
2021/09/24 10:20:14;;;;;;;8.10;7.40;;;24.90;86.60;;;;;;6120280;23;20410;-86
2021/09/24 10:22:41;;;;;;;8.53;7.30;;;25.50;84.00;;;;;;6116508;23;20439;-87
2021/09/24 10:25:09;;;;;;;9.30;7.03;;;25.00;83.80;;;;;;6120742;23;20514;-85
2021/09/24 10:27:44;;;;;;;9.03;6.93;;;24.20;86.60;;;;;;6118940;23;20474;-87
2021/09/24 10:30:17;;;;;;;7.67;6.97;;;23.70;88.70;;;;;;6118942;23;20431;-86
2021/09/24 10:33:03;;;;;;;6.70;5.90;;;23.50;89.70;;;;;;6127049;23;21366;-85
2021/09/24 10:35:54;;;;;;;6.30;5.80;;;24.60;86.70;;;;;;6116189;23;20483;-87
2021/09/24 10:38:32;;;;;;;8.13;5.83;;;24.80;85.70;;;;;;6117812;23;20914;-87
2021/09/24 10:41:05;;;;;;;6.50;5.27;;;25.30;84.80;;;;;;6093587;23;20423;-85
2021/09/24 10:43:45;;;;;;;6.63;6.03;;;25.60;83.00;;;;;;6123654;23;20427;-85
2021/09/24 10:46:24;;;;;;;7.13;6.03;;;26.40;79.90;;;;;;6125899;23;20395;-86
2021/09/24 10:49:12;;;;;;;8.37;6.10;;;25.70;81.20;;;;;;6102830;23;20454;-90
2021/09/24 10:52:08;;;;;;;5.10;4.60;;;24.50;84.60;;;;;;6151625;23;20430;-88
2021/09/24 10:54:59;;;;;;;5.10;4.40;;;23.70;87.00;;;;;;6126967;23;20438;-89
2021/09/24 10:57:49;;;;;;;4.70;3.60;;;23.70;87.90;;;;;;6122647;23;20477;-89
2021/09/24 11:00:27;;;;;;;5.10;4.30;;;23.70;88.10;;;;;;6154113;23;20402;-88
2021/09/24 11:03:19;;;;;;;5.53;4.43;;;23.90;87.30;;;;;;6137998;23;20421;-86
2021/09/24 11:06:03;;;;;;;5.17;4.40;;;23.50;87.80;;;;;;6123367;23;20403;-88
2021/09/24 11:08:36;;;;;;;4.20;3.80;;;23.20;88.10;;;;;;6128350;23;20424;-86
2021/09/24 11:11:20;;;;;;;6.57;4.07;;;23.00;88.90;;;;;;6125425;23;20442;-86
2021/09/24 11:13:50;;;;;;;6.03;5.07;;;23.20;88.90;;;;;;6103173;23;20403;-84
2021/09/24 11:16:22;;;;;;;6.03;5.50;;;23.70;88.20;;;;;;6131255;23;20415;-86
2021/09/24 11:19:33;;;;;;;5.73;4.90;;;24.00;86.90;;;;;;6133628;23;20446;-87
2021/09/24 11:22:37;;;;;;;5.80;4.30;;;24.50;85.10;;;;;;6087059;23;20417;-85
2021/09/24 11:25:12;;;;;;;5.27;4.10;;;24.90;83.30;;;;;;6114289;23;20852;-85
2021/09/24 11:27:48;;;;;;;5.10;4.27;;;25.30;81.40;;;;;;6121769;23;20509;-85
2021/09/24 11:30:24;;;;;;;5.27;4.70;;;25.40;80.80;;;;;;6145999;23;20441;-86
2021/09/24 11:32:55;;;;;;;5.17;4.20;;;25.20;80.80;;;;;;6135863;23;20417;-86
2021/09/24 11:35:39;;;;;;;4.93;4.23;;;24.80;81.50;;;;;;6103696;23;20497;-85
2021/09/24 11:38:33;;;;;;;6.70;5.40;;;24.40;82.30;;;;;;6126295;23;20430;-85
2021/09/24 11:41:03;;;;;;;6.10;5.10;;;24.20;83.60;;;;;;6123178;23;20406;-85
2021/09/24 11:43:37;;;;;;;6.60;5.17;;;24.00;84.30;;;;;;6125472;23;20427;-85
2021/09/24 11:46:23;;;;;;;8.67;4.10;;;23.70;85.00;;;;;;6131285;23;20545;-85
2021/09/24 11:48:52;;;;;;;5.20;4.70;;;23.60;85.70;;;;;;6094631;23;20461;-84
2021/09/24 11:51:25;;;;;;;8.20;5.03;;;23.50;85.80;;;;;;6097834;23;20522;-85
2021/09/24 11:53:57;;;;;;;5.30;4.80;;;23.40;86.10;;;;;;6126804;23;20915;-84
2021/09/24 11:56:41;;;;;;;4.93;4.53;;;23.30;86.20;;;;;;6118370;23;20459;-89
2021/09/24 11:59:22;;;;;;;5.57;4.70;;;23.20;86.50;;;;;;6114286;23;20441;-86
2021/09/24 12:01:48;;;;;;;7.03;4.60;;;23.10;87.10;;;;;;6117323;23;20403;-86
2021/09/24 12:04:15;;;;;;;4.87;4.37;;;23.00;87.90;;;;;;6089587;23;20418;-84
2021/09/24 12:06:43;;;;;;;5.33;4.83;;;23.00;88.40;;;;;;6090027;23;20415;-85
2021/09/24 12:09:12;;;;;;;6.20;4.83;;;22.90;88.90;;;;;;6124125;23;20435;-82
2021/09/24 12:11:41;;;;;;;8.67;5.10;;;22.90;89.80;;;;;;6096686;23;20443;-84
2021/09/24 12:14:12;;;;;;;6.73;5.00;;;22.80;90.00;;;;;;6109067;23;20434;-84
2021/09/24 12:16:41;;;;;;;5.10;4.60;;;22.70;90.30;;;;;;6099083;23;20799;-84
2021/09/24 12:19:22;;;;;;;5.20;4.67;;;22.70;90.60;;;;;;6114251;23;20696;-86
2021/09/24 12:21:53;;;;;;;5.33;4.47;;;23.00;90.40;;;;;;6108530;23;20395;-83
2021/09/24 12:24:28;;;;;;;5.57;4.20;;;22.80;90.00;;;;;;6134311;23;20937;-83
2021/09/24 12:27:07;;;;;;;5.77;4.23;;;22.70;90.20;;;;;;6107068;23;20425;-84
2021/09/24 12:29:36;;;;;;;4.60;4.07;;;22.60;90.30;;;;;;6125455;23;20435;-83
2021/09/24 12:32:14;;;;;;;5.23;4.50;;;22.50;90.30;;;;;;6109292;23;20502;-83
2021/09/24 12:35:00;;;;;;;5.10;4.70;;;22.40;90.50;;;;;;6114270;23;20455;-82
2021/09/24 12:37:43;;;;;;;4.87;4.37;;;22.60;90.50;;;;;;6142740;23;20415;-84
2021/09/24 12:40:17;;;;;;;6.07;5.00;;;22.60;90.30;;;;;;6148077;23;20423;-85
2021/09/24 12:42:47;;;;;;;5.20;4.10;;;22.60;90.40;;;;;;6147201;23;20687;-84
2021/09/24 12:45:31;;;;;;;5.77;5.10;;;22.60;90.60;;;;;;6120205;23;20957;-84
2021/09/24 12:48:18;;;;;;;9.23;4.50;;;22.60;90.70;;;;;;6114499;23;20427;-81
2021/09/24 12:50:49;;;;;;;4.97;4.57;;;22.70;90.90;;;;;;6109122;23;20442;-84
2021/09/24 12:53:18;;;;;;;5.60;4.77;;;22.80;90.80;;;;;;6107476;23;20410;-86
2021/09/24 12:55:46;;;;;;;6.20;4.47;;;22.80;90.70;;;;;;6107778;23;20410;-81
2021/09/24 12:58:13;;;;;;;6.77;4.60;;;22.80;90.80;;;;;;6095769;23;20454;-83
2021/09/24 13:00:50;;;;;;;5.30;4.80;;;22.90;90.60;;;;;;6122643;23;20506;-85
2021/09/24 13:03:23;;;;;;;5.53;4.13;;;23.00;90.50;;;;;;6129111;23;20418;-83
2021/09/24 13:05:52;;;;;;;5.07;4.30;;;23.10;90.40;;;;;;6097066;23;20422;-84
2021/09/24 13:08:24;;;;;;;5.60;5.07;;;23.10;90.50;;;;;;6103660;23;20466;-84
2021/09/24 13:10:58;;;;;;;5.23;3.77;;;23.00;90.50;;;;;;6126506;23;21000;-83
2021/09/24 13:13:29;;;;;;;6.87;4.50;;;22.90;90.60;;;;;;6125171;23;20984;-85
2021/09/24 13:15:57;;;;;;;6.27;3.70;;;22.90;90.70;;;;;;6118558;23;20502;-82
2021/09/24 13:18:25;;;;;;;6.10;3.70;;;22.80;90.70;;;;;;6122815;23;21224;-83